sensor_id;sensor_type;location;lat;lon;timestamp;P1;P2;P0
76420;PMS5003;65253;52.354;13.614;2024-02-21T00:00:00;9;5;
76420;PMS5003;65253;52.354;13.614;2024-02-21T00:04:00;10;5;
76420;PMS5003;65253;52.354;13.614;2024-02-21T00:08:01;6;4;
76420;PMS5003;65253;52.354;13.614;2024-02-21T00:12:00;9;6;
76420;PMS5003;65253;52.354;13.614;2024-02-21T00:16:00;7;5;
76420;PMS5003;65253;52.354;13.614;2024-02-21T00:20:00;8;5;
76420;PMS5003;65253;52.354;13.614;2024-02-21T00:24:00;6;5;
76420;PMS5003;65253;52.354;13.614;2024-02-21T00:28:00;9;6;
76420;PMS5003;65253;52.354;13.614;2024-02-21T00:32:00;10;5;
76420;PMS5003;65253;52.354;13.614;2024-02-21T00:36:00;9;6;
76420;PMS5003;65253;52.354;13.614;2024-02-21T00:40:00;12;5;
76420;PMS5003;65253;52.354;13.614;2024-02-21T00:44:00;6;5;
76420;PMS5003;65253;52.354;13.614;2024-02-21T00:48:00;5;4;
76420;PMS5003;65253;52.354;13.614;2024-02-21T00:52:00;7;4;
76420;PMS5003;65253;52.354;13.614;2024-02-21T00:56:00;7;5;
76420;PMS5003;65253;52.354;13.614;2024-02-21T01:00:00;4;4;
76420;PMS5003;65253;52.354;13.614;2024-02-21T01:04:00;8;5;
76420;PMS5003;65253;52.354;13.614;2024-02-21T01:08:00;7;5;
76420;PMS5003;65253;52.354;13.614;2024-02-21T01:12:00;14;6;
76420;PMS5003;65253;52.354;13.614;2024-02-21T01:16:00;6;5;
76420;PMS5003;65253;52.354;13.614;2024-02-21T01:20:00;7;6;
76420;PMS5003;65253;52.354;13.614;2024-02-21T01:24:00;8;6;
76420;PMS5003;65253;52.354;13.614;2024-02-21T01:28:00;10;6;
76420;PMS5003;65253;52.354;13.614;2024-02-21T01:32:00;6;5;
76420;PMS5003;65253;52.354;13.614;2024-02-21T01:36:00;5;5;
76420;PMS5003;65253;52.354;13.614;2024-02-21T01:40:00;5;5;
76420;PMS5003;65253;52.354;13.614;2024-02-21T01:44:00;8;5;
76420;PMS5003;65253;52.354;13.614;2024-02-21T01:48:00;8;5;
76420;PMS5003;65253;52.354;13.614;2024-02-21T01:52:00;8;6;
76420;PMS5003;65253;52.354;13.614;2024-02-21T01:56:00;9;4;
76420;PMS5003;65253;52.354;13.614;2024-02-21T02:00:00;5;4;
76420;PMS5003;65253;52.354;13.614;2024-02-21T02:04:00;7;4;
76420;PMS5003;65253;52.354;13.614;2024-02-21T02:08:00;6;5;
76420;PMS5003;65253;52.354;13.614;2024-02-21T02:12:01;9;6;
76420;PMS5003;65253;52.354;13.614;2024-02-21T02:16:00;7;5;
76420;PMS5003;65253;52.354;13.614;2024-02-21T02:20:00;6;4;
76420;PMS5003;65253;52.354;13.614;2024-02-21T02:24:00;6;6;
76420;PMS5003;65253;52.354;13.614;2024-02-21T02:28:00;8;5;
76420;PMS5003;65253;52.354;13.614;2024-02-21T02:32:00;5;4;
76420;PMS5003;65253;52.354;13.614;2024-02-21T02:36:00;5;5;
76420;PMS5003;65253;52.354;13.614;2024-02-21T02:40:00;4;4;
76420;PMS5003;65253;52.354;13.614;2024-02-21T02:44:00;6;5;
76420;PMS5003;65253;52.354;13.614;2024-02-21T02:48:01;11;5;
76420;PMS5003;65253;52.354;13.614;2024-02-21T02:52:00;10;4;
76420;PMS5003;65253;52.354;13.614;2024-02-21T02:56:00;7;3;
76420;PMS5003;65253;52.354;13.614;2024-02-21T03:00:00;4;3;
76420;PMS5003;65253;52.354;13.614;2024-02-21T03:04:00;8;5;
76420;PMS5003;65253;52.354;13.614;2024-02-21T03:08:00;7;4;
76420;PMS5003;65253;52.354;13.614;2024-02-21T03:12:00;9;4;
76420;PMS5003;65253;52.354;13.614;2024-02-21T03:16:00;5;4;
76420;PMS5003;65253;52.354;13.614;2024-02-21T03:20:01;3;2;
76420;PMS5003;65253;52.354;13.614;2024-02-21T03:24:00;8;3;
76420;PMS5003;65253;52.354;13.614;2024-02-21T03:28:00;3;3;
76420;PMS5003;65253;52.354;13.614;2024-02-21T03:32:00;3;3;
76420;PMS5003;65253;52.354;13.614;2024-02-21T03:36:00;5;4;
76420;PMS5003;65253;52.354;13.614;2024-02-21T03:40:00;9;4;
76420;PMS5003;65253;52.354;13.614;2024-02-21T03:44:00;6;5;
76420;PMS5003;65253;52.354;13.614;2024-02-21T03:48:00;8;6;
76420;PMS5003;65253;52.354;13.614;2024-02-21T03:52:00;4;4;
76420;PMS5003;65253;52.354;13.614;2024-02-21T03:56:01;11;5;
76420;PMS5003;65253;52.354;13.614;2024-02-21T04:00:00;7;7;
76420;PMS5003;65253;52.354;13.614;2024-02-21T04:04:00;4;4;
76420;PMS5003;65253;52.354;13.614;2024-02-21T04:08:03;6;4;
76420;PMS5003;65253;52.354;13.614;2024-02-21T04:12:00;5;5;
76420;PMS5003;65253;52.354;13.614;2024-02-21T04:16:00;8;7;
76420;PMS5003;65253;52.354;13.614;2024-02-21T04:20:02;6;5;
76420;PMS5003;65253;52.354;13.614;2024-02-21T04:24:00;8;6;
76420;PMS5003;65253;52.354;13.614;2024-02-21T04:28:00;6;3;
76420;PMS5003;65253;52.354;13.614;2024-02-21T04:32:01;8;5;
76420;PMS5003;65253;52.354;13.614;2024-02-21T04:36:00;5;3;
76420;PMS5003;65253;52.354;13.614;2024-02-21T04:40:00;9;4;
76420;PMS5003;65253;52.354;13.614;2024-02-21T04:44:00;8;5;
76420;PMS5003;65253;52.354;13.614;2024-02-21T04:48:00;7;5;
76420;PMS5003;65253;52.354;13.614;2024-02-21T04:52:00;5;5;
76420;PMS5003;65253;52.354;13.614;2024-02-21T04:56:00;6;5;
76420;PMS5003;65253;52.354;13.614;2024-02-21T05:00:00;9;4;
76420;PMS5003;65253;52.354;13.614;2024-02-21T05:04:00;5;4;
76420;PMS5003;65253;52.354;13.614;2024-02-21T05:08:00;7;6;
76420;PMS5003;65253;52.354;13.614;2024-02-21T05:12:00;5;4;
76420;PMS5003;65253;52.354;13.614;2024-02-21T05:16:00;6;6;
76420;PMS5003;65253;52.354;13.614;2024-02-21T05:20:01;10;5;
76420;PMS5003;65253;52.354;13.614;2024-02-21T05:24:00;8;7;
76420;PMS5003;65253;52.354;13.614;2024-02-21T05:28:00;6;6;
76420;PMS5003;65253;52.354;13.614;2024-02-21T05:32:00;8;4;
76420;PMS5003;65253;52.354;13.614;2024-02-21T05:36:00;7;4;
76420;PMS5003;65253;52.354;13.614;2024-02-21T05:40:00;8;4;
76420;PMS5003;65253;52.354;13.614;2024-02-21T05:44:00;8;5;
76420;PMS5003;65253;52.354;13.614;2024-02-21T05:48:00;6;4;
76420;PMS5003;65253;52.354;13.614;2024-02-21T05:52:00;8;5;
76420;PMS5003;65253;52.354;13.614;2024-02-21T05:56:00;12;7;
76420;PMS5003;65253;52.354;13.614;2024-02-21T06:00:02;4;4;
76420;PMS5003;65253;52.354;13.614;2024-02-21T06:04:00;5;4;
76420;PMS5003;65253;52.354;13.614;2024-02-21T06:08:00;9;6;
76420;PMS5003;65253;52.354;13.614;2024-02-21T06:12:00;7;5;
76420;PMS5003;65253;52.354;13.614;2024-02-21T06:16:00;7;6;
76420;PMS5003;65253;52.354;13.614;2024-02-21T06:20:01;7;4;
76420;PMS5003;65253;52.354;13.614;2024-02-21T06:24:00;8;6;
76420;PMS5003;65253;52.354;13.614;2024-02-21T06:28:00;4;4;
76420;PMS5003;65253;52.354;13.614;2024-02-21T06:32:01;11;7;
76420;PMS5003;65253;52.354;13.614;2024-02-21T06:36:00;6;5;
76420;PMS5003;65253;52.354;13.614;2024-02-21T06:40:00;8;6;
76420;PMS5003;65253;52.354;13.614;2024-02-21T06:44:01;10;4;
76420;PMS5003;65253;52.354;13.614;2024-02-21T06:48:01;9;3;
76420;PMS5003;65253;52.354;13.614;2024-02-21T06:52:00;5;4;
76420;PMS5003;65253;52.354;13.614;2024-02-21T06:56:00;8;5;
76420;PMS5003;65253;52.354;13.614;2024-02-21T07:00:00;5;5;
76420;PMS5003;65253;52.354;13.614;2024-02-21T07:04:00;5;3;
76420;PMS5003;65253;52.354;13.614;2024-02-21T07:08:01;7;4;
76420;PMS5003;65253;52.354;13.614;2024-02-21T07:12:00;8;4;
76420;PMS5003;65253;52.354;13.614;2024-02-21T07:16:00;7;5;
76420;PMS5003;65253;52.354;13.614;2024-02-21T07:20:01;12;4;
76420;PMS5003;65253;52.354;13.614;2024-02-21T07:24:00;4;4;
76420;PMS5003;65253;52.354;13.614;2024-02-21T07:28:00;5;4;
76420;PMS5003;65253;52.354;13.614;2024-02-21T07:32:01;4;4;
76420;PMS5003;65253;52.354;13.614;2024-02-21T07:36:00;5;4;
76420;PMS5003;65253;52.354;13.614;2024-02-21T07:40:00;9;4;
76420;PMS5003;65253;52.354;13.614;2024-02-21T07:44:01;11;5;
76420;PMS5003;65253;52.354;13.614;2024-02-21T07:48:00;7;4;
76420;PMS5003;65253;52.354;13.614;2024-02-21T07:52:00;7;5;
76420;PMS5003;65253;52.354;13.614;2024-02-21T07:56:00;7;3;
76420;PMS5003;65253;52.354;13.614;2024-02-21T08:00:00;10;6;
76420;PMS5003;65253;52.354;13.614;2024-02-21T08:04:00;7;7;
76420;PMS5003;65253;52.354;13.614;2024-02-21T08:08:00;6;4;
76420;PMS5003;65253;52.354;13.614;2024-02-21T08:12:00;10;5;
76420;PMS5003;65253;52.354;13.614;2024-02-21T08:16:00;7;5;
76420;PMS5003;65253;52.354;13.614;2024-02-21T08:20:01;7;5;
76420;PMS5003;65253;52.354;13.614;2024-02-21T08:24:00;10;7;
76420;PMS5003;65253;52.354;13.614;2024-02-21T08:28:00;8;7;
76420;PMS5003;65253;52.354;13.614;2024-02-21T08:32:01;8;4;
76420;PMS5003;65253;52.354;13.614;2024-02-21T08:36:00;9;7;
76420;PMS5003;65253;52.354;13.614;2024-02-21T08:40:00;9;6;
76420;PMS5003;65253;52.354;13.614;2024-02-21T08:44:01;9;9;
76420;PMS5003;65253;52.354;13.614;2024-02-21T08:48:01;14;8;
76420;PMS5003;65253;52.354;13.614;2024-02-21T08:52:00;10;7;
76420;PMS5003;65253;52.354;13.614;2024-02-21T08:56:00;7;7;
76420;PMS5003;65253;52.354;13.614;2024-02-21T09:00:00;8;5;
76420;PMS5003;65253;52.354;13.614;2024-02-21T09:04:00;11;7;
76420;PMS5003;65253;52.354;13.614;2024-02-21T09:08:01;10;7;
76420;PMS5003;65253;52.354;13.614;2024-02-21T09:12:00;8;7;
76420;PMS5003;65253;52.354;13.614;2024-02-21T09:16:00;10;5;
76420;PMS5003;65253;52.354;13.614;2024-02-21T09:20:01;7;6;
76420;PMS5003;65253;52.354;13.614;2024-02-21T09:24:01;9;6;
76420;PMS5003;65253;52.354;13.614;2024-02-21T09:28:01;10;8;
76420;PMS5003;65253;52.354;13.614;2024-02-21T09:32:00;7;6;
76420;PMS5003;65253;52.354;13.614;2024-02-21T09:36:00;7;6;
76420;PMS5003;65253;52.354;13.614;2024-02-21T09:40:00;8;5;
76420;PMS5003;65253;52.354;13.614;2024-02-21T09:44:00;13;8;
76420;PMS5003;65253;52.354;13.614;2024-02-21T09:48:05;8;6;
76420;PMS5003;65253;52.354;13.614;2024-02-21T09:52:01;11;8;
76420;PMS5003;65253;52.354;13.614;2024-02-21T09:56:01;8;6;
76420;PMS5003;65253;52.354;13.614;2024-02-21T10:00:00;9;6;
76420;PMS5003;65253;52.354;13.614;2024-02-21T10:04:00;7;3;
76420;PMS5003;65253;52.354;13.614;2024-02-21T10:08:00;11;8;
76420;PMS5003;65253;52.354;13.614;2024-02-21T10:12:08;7;7;
76420;PMS5003;65253;52.354;13.614;2024-02-21T10:16:01;9;7;
76420;PMS5003;65253;52.354;13.614;2024-02-21T10:20:10;8;5;
76420;PMS5003;65253;52.354;13.614;2024-02-21T10:24:00;9;7;
76420;PMS5003;65253;52.354;13.614;2024-02-21T10:28:01;8;7;
76420;PMS5003;65253;52.354;13.614;2024-02-21T10:32:04;9;8;
76420;PMS5003;65253;52.354;13.614;2024-02-21T10:36:08;11;8;
76420;PMS5003;65253;52.354;13.614;2024-02-21T10:40:00;6;6;
76420;PMS5003;65253;52.354;13.614;2024-02-21T10:44:00;8;6;
76420;PMS5003;65253;52.354;13.614;2024-02-21T10:48:01;9;6;
76420;PMS5003;65253;52.354;13.614;2024-02-21T10:52:02;6;5;
76420;PMS5003;65253;52.354;13.614;2024-02-21T10:56:04;8;7;
76420;PMS5003;65253;52.354;13.614;2024-02-21T11:00:00;10;7;
76420;PMS5003;65253;52.354;13.614;2024-02-21T11:04:01;7;6;
76420;PMS5003;65253;52.354;13.614;2024-02-21T11:08:00;10;9;
76420;PMS5003;65253;52.354;13.614;2024-02-21T11:12:02;12;8;
76420;PMS5003;65253;52.354;13.614;2024-02-21T11:16:08;8;6;
76420;PMS5003;65253;52.354;13.614;2024-02-21T11:20:10;6;6;
76420;PMS5003;65253;52.354;13.614;2024-02-21T11:24:00;5;5;
76420;PMS5003;65253;52.354;13.614;2024-02-21T11:28:00;11;6;
76420;PMS5003;65253;52.354;13.614;2024-02-21T11:32:00;6;6;
76420;PMS5003;65253;52.354;13.614;2024-02-21T11:36:00;8;7;
76420;PMS5003;65253;52.354;13.614;2024-02-21T11:40:00;9;6;
76420;PMS5003;65253;52.354;13.614;2024-02-21T11:44:00;6;6;
76420;PMS5003;65253;52.354;13.614;2024-02-21T11:48:00;4;3;
76420;PMS5003;65253;52.354;13.614;2024-02-21T11:52:00;6;6;
76420;PMS5003;65253;52.354;13.614;2024-02-21T11:56:00;6;6;
76420;PMS5003;65253;52.354;13.614;2024-02-21T12:00:12;8;6;
76420;PMS5003;65253;52.354;13.614;2024-02-21T12:04:00;10;4;
76420;PMS5003;65253;52.354;13.614;2024-02-21T12:08:00;8;5;
76420;PMS5003;65253;52.354;13.614;2024-02-21T12:12:01;6;5;
76420;PMS5003;65253;52.354;13.614;2024-02-21T12:16:00;7;6;
76420;PMS5003;65253;52.354;13.614;2024-02-21T12:20:01;6;5;
76420;PMS5003;65253;52.354;13.614;2024-02-21T12:24:00;5;5;
76420;PMS5003;65253;52.354;13.614;2024-02-21T12:28:00;9;6;
76420;PMS5003;65253;52.354;13.614;2024-02-21T12:32:00;7;5;
76420;PMS5003;65253;52.354;13.614;2024-02-21T12:36:00;5;5;
76420;PMS5003;65253;52.354;13.614;2024-02-21T12:40:00;11;7;
76420;PMS5003;65253;52.354;13.614;2024-02-21T12:44:00;9;6;
76420;PMS5003;65253;52.354;13.614;2024-02-21T12:48:00;5;5;
76420;PMS5003;65253;52.354;13.614;2024-02-21T12:52:00;6;5;
76420;PMS5003;65253;52.354;13.614;2024-02-21T12:56:00;7;6;
76420;PMS5003;65253;52.354;13.614;2024-02-21T13:00:00;6;5;
76420;PMS5003;65253;52.354;13.614;2024-02-21T13:04:00;9;7;
76420;PMS5003;65253;52.354;13.614;2024-02-21T13:08:00;10;6;
76420;PMS5003;65253;52.354;13.614;2024-02-21T13:12:00;6;6;
76420;PMS5003;65253;52.354;13.614;2024-02-21T13:16:01;9;6;
76420;PMS5003;65253;52.354;13.614;2024-02-21T13:20:01;6;4;
76420;PMS5003;65253;52.354;13.614;2024-02-21T13:24:00;4;3;
76420;PMS5003;65253;52.354;13.614;2024-02-21T13:28:00;4;4;
76420;PMS5003;65253;52.354;13.614;2024-02-21T13:32:00;4;3;
76420;PMS5003;65253;52.354;13.614;2024-02-21T13:36:00;6;3;
76420;PMS5003;65253;52.354;13.614;2024-02-21T13:40:00;5;5;
76420;PMS5003;65253;52.354;13.614;2024-02-21T13:44:00;4;4;
76420;PMS5003;65253;52.354;13.614;2024-02-21T13:48:00;3;3;
76420;PMS5003;65253;52.354;13.614;2024-02-21T13:52:00;5;3;
76420;PMS5003;65253;52.354;13.614;2024-02-21T13:56:00;8;6;
76420;PMS5003;65253;52.354;13.614;2024-02-21T14:00:00;6;6;
76420;PMS5003;65253;52.354;13.614;2024-02-21T14:04:00;6;4;
76420;PMS5003;65253;52.354;13.614;2024-02-21T14:08:00;4;4;
76420;PMS5003;65253;52.354;13.614;2024-02-21T14:12:00;7;6;
76420;PMS5003;65253;52.354;13.614;2024-02-21T14:16:00;6;5;
76420;PMS5003;65253;52.354;13.614;2024-02-21T14:20:00;7;4;
76420;PMS5003;65253;52.354;13.614;2024-02-21T14:24:00;10;6;
76420;PMS5003;65253;52.354;13.614;2024-02-21T14:28:00;6;4;
76420;PMS5003;65253;52.354;13.614;2024-02-21T14:32:00;3;3;
76420;PMS5003;65253;52.354;13.614;2024-02-21T14:36:00;4;4;
76420;PMS5003;65253;52.354;13.614;2024-02-21T14:40:00;5;4;
76420;PMS5003;65253;52.354;13.614;2024-02-21T14:44:05;2;2;
76420;PMS5003;65253;52.354;13.614;2024-02-21T14:48:00;7;5;
76420;PMS5003;65253;52.354;13.614;2024-02-21T14:52:00;6;4;
76420;PMS5003;65253;52.354;13.614;2024-02-21T14:56:00;4;4;
76420;PMS5003;65253;52.354;13.614;2024-02-21T15:00:02;5;4;
76420;PMS5003;65253;52.354;13.614;2024-02-21T15:04:00;6;4;
76420;PMS5003;65253;52.354;13.614;2024-02-21T15:08:00;5;4;
76420;PMS5003;65253;52.354;13.614;2024-02-21T15:12:00;11;8;
76420;PMS5003;65253;52.354;13.614;2024-02-21T15:16:00;8;6;
76420;PMS5003;65253;52.354;13.614;2024-02-21T15:20:01;7;7;
76420;PMS5003;65253;52.354;13.614;2024-02-21T15:24:00;10;6;
76420;PMS5003;65253;52.354;13.614;2024-02-21T15:28:00;12;6;
76420;PMS5003;65253;52.354;13.614;2024-02-21T15:32:00;4;4;
76420;PMS5003;65253;52.354;13.614;2024-02-21T15:36:00;7;5;
76420;PMS5003;65253;52.354;13.614;2024-02-21T15:40:05;6;5;
76420;PMS5003;65253;52.354;13.614;2024-02-21T15:44:00;6;3;
76420;PMS5003;65253;52.354;13.614;2024-02-21T15:48:00;5;4;
76420;PMS5003;65253;52.354;13.614;2024-02-21T15:52:00;6;6;
76420;PMS5003;65253;52.354;13.614;2024-02-21T15:56:00;5;4;
76420;PMS5003;65253;52.354;13.614;2024-02-21T16:00:00;6;5;
76420;PMS5003;65253;52.354;13.614;2024-02-21T16:04:00;6;5;
76420;PMS5003;65253;52.354;13.614;2024-02-21T16:08:00;5;4;
76420;PMS5003;65253;52.354;13.614;2024-02-21T16:12:00;8;4;
76420;PMS5003;65253;52.354;13.614;2024-02-21T16:16:00;6;5;
76420;PMS5003;65253;52.354;13.614;2024-02-21T16:20:01;5;4;
76420;PMS5003;65253;52.354;13.614;2024-02-21T16:24:00;4;4;
76420;PMS5003;65253;52.354;13.614;2024-02-21T16:28:00;8;4;
76420;PMS5003;65253;52.354;13.614;2024-02-21T16:32:00;3;3;
76420;PMS5003;65253;52.354;13.614;2024-02-21T16:36:00;8;4;
76420;PMS5003;65253;52.354;13.614;2024-02-21T16:40:00;6;3;
76420;PMS5003;65253;52.354;13.614;2024-02-21T16:44:00;5;5;
76420;PMS5003;65253;52.354;13.614;2024-02-21T16:48:00;6;4;
76420;PMS5003;65253;52.354;13.614;2024-02-21T16:52:00;3;3;
76420;PMS5003;65253;52.354;13.614;2024-02-21T16:56:00;6;4;
76420;PMS5003;65253;52.354;13.614;2024-02-21T17:00:00;4;4;
76420;PMS5003;65253;52.354;13.614;2024-02-21T17:04:00;7;5;
76420;PMS5003;65253;52.354;13.614;2024-02-21T17:08:00;9;4;
76420;PMS5003;65253;52.354;13.614;2024-02-21T17:12:00;5;4;
76420;PMS5003;65253;52.354;13.614;2024-02-21T17:16:00;5;3;
76420;PMS5003;65253;52.354;13.614;2024-02-21T17:20:00;6;5;
76420;PMS5003;65253;52.354;13.614;2024-02-21T17:24:00;11;6;
76420;PMS5003;65253;52.354;13.614;2024-02-21T17:28:00;7;6;
76420;PMS5003;65253;52.354;13.614;2024-02-21T17:32:00;23;13;
76420;PMS5003;65253;52.354;13.614;2024-02-21T17:36:00;20;14;
76420;PMS5003;65253;52.354;13.614;2024-02-21T17:40:00;14;9;
76420;PMS5003;65253;52.354;13.614;2024-02-21T17:44:00;8;7;
76420;PMS5003;65253;52.354;13.614;2024-02-21T17:48:00;10;9;
76420;PMS5003;65253;52.354;13.614;2024-02-21T17:52:00;8;6;
76420;PMS5003;65253;52.354;13.614;2024-02-21T17:56:00;12;9;
76420;PMS5003;65253;52.354;13.614;2024-02-21T18:00:00;9;9;
76420;PMS5003;65253;52.354;13.614;2024-02-21T18:04:00;11;8;
76420;PMS5003;65253;52.354;13.614;2024-02-21T18:08:00;9;8;
76420;PMS5003;65253;52.354;13.614;2024-02-21T18:12:00;10;9;
76420;PMS5003;65253;52.354;13.614;2024-02-21T18:16:01;10;7;
76420;PMS5003;65253;52.354;13.614;2024-02-21T18:20:00;11;7;
76420;PMS5003;65253;52.354;13.614;2024-02-21T18:24:00;12;9;
76420;PMS5003;65253;52.354;13.614;2024-02-21T18:28:00;13;9;
76420;PMS5003;65253;52.354;13.614;2024-02-21T18:32:00;12;8;
76420;PMS5003;65253;52.354;13.614;2024-02-21T18:36:00;9;7;
76420;PMS5003;65253;52.354;13.614;2024-02-21T18:40:00;11;9;
76420;PMS5003;65253;52.354;13.614;2024-02-21T18:44:00;10;10;
76420;PMS5003;65253;52.354;13.614;2024-02-21T18:48:00;8;8;
76420;PMS5003;65253;52.354;13.614;2024-02-21T18:52:00;9;9;
76420;PMS5003;65253;52.354;13.614;2024-02-21T18:56:00;11;9;
76420;PMS5003;65253;52.354;13.614;2024-02-21T19:00:00;15;10;
76420;PMS5003;65253;52.354;13.614;2024-02-21T19:04:00;14;11;
76420;PMS5003;65253;52.354;13.614;2024-02-21T19:08:00;15;12;
76420;PMS5003;65253;52.354;13.614;2024-02-21T19:12:00;11;11;
76420;PMS5003;65253;52.354;13.614;2024-02-21T19:16:00;10;10;
76420;PMS5003;65253;52.354;13.614;2024-02-21T19:20:01;12;9;
76420;PMS5003;65253;52.354;13.614;2024-02-21T19:24:00;14;10;
76420;PMS5003;65253;52.354;13.614;2024-02-21T19:28:00;11;10;
76420;PMS5003;65253;52.354;13.614;2024-02-21T19:32:00;13;12;
76420;PMS5003;65253;52.354;13.614;2024-02-21T19:36:00;17;11;
76420;PMS5003;65253;52.354;13.614;2024-02-21T19:40:00;11;7;
76420;PMS5003;65253;52.354;13.614;2024-02-21T19:44:00;9;9;
76420;PMS5003;65253;52.354;13.614;2024-02-21T19:48:00;8;7;
76420;PMS5003;65253;52.354;13.614;2024-02-21T19:52:00;10;7;
76420;PMS5003;65253;52.354;13.614;2024-02-21T19:56:00;10;7;
76420;PMS5003;65253;52.354;13.614;2024-02-21T20:00:00;8;7;
76420;PMS5003;65253;52.354;13.614;2024-02-21T20:04:00;17;11;
76420;PMS5003;65253;52.354;13.614;2024-02-21T20:08:00;16;9;
76420;PMS5003;65253;52.354;13.614;2024-02-21T20:12:00;16;12;
76420;PMS5003;65253;52.354;13.614;2024-02-21T20:16:00;15;11;
76420;PMS5003;65253;52.354;13.614;2024-02-21T20:20:01;18;14;
76420;PMS5003;65253;52.354;13.614;2024-02-21T20:24:00;30;19;
76420;PMS5003;65253;52.354;13.614;2024-02-21T20:28:00;48;27;
76420;PMS5003;65253;52.354;13.614;2024-02-21T20:32:01;22;14;
76420;PMS5003;65253;52.354;13.614;2024-02-21T20:36:00;18;11;
76420;PMS5003;65253;52.354;13.614;2024-02-21T20:40:00;13;9;
76420;PMS5003;65253;52.354;13.614;2024-02-21T20:44:00;11;9;
76420;PMS5003;65253;52.354;13.614;2024-02-21T20:48:00;7;6;
76420;PMS5003;65253;52.354;13.614;2024-02-21T20:52:00;8;8;
76420;PMS5003;65253;52.354;13.614;2024-02-21T20:56:00;7;7;
76420;PMS5003;65253;52.354;13.614;2024-02-21T21:00:00;7;6;
76420;PMS5003;65253;52.354;13.614;2024-02-21T21:04:00;8;8;
76420;PMS5003;65253;52.354;13.614;2024-02-21T21:08:00;6;5;
76420;PMS5003;65253;52.354;13.614;2024-02-21T21:12:00;12;7;
76420;PMS5003;65253;52.354;13.614;2024-02-21T21:16:00;8;6;
76420;PMS5003;65253;52.354;13.614;2024-02-21T21:20:01;10;6;
76420;PMS5003;65253;52.354;13.614;2024-02-21T21:24:00;7;7;
76420;PMS5003;65253;52.354;13.614;2024-02-21T21:28:00;9;7;
76420;PMS5003;65253;52.354;13.614;2024-02-21T21:32:00;7;7;
76420;PMS5003;65253;52.354;13.614;2024-02-21T21:36:00;13;7;
76420;PMS5003;65253;52.354;13.614;2024-02-21T21:40:00;10;8;
76420;PMS5003;65253;52.354;13.614;2024-02-21T21:44:00;9;8;
76420;PMS5003;65253;52.354;13.614;2024-02-21T21:48:00;7;5;
76420;PMS5003;65253;52.354;13.614;2024-02-21T21:52:00;7;7;
76420;PMS5003;65253;52.354;13.614;2024-02-21T21:56:00;8;5;
76420;PMS5003;65253;52.354;13.614;2024-02-21T22:00:00;8;7;
76420;PMS5003;65253;52.354;13.614;2024-02-21T22:04:00;7;6;
76420;PMS5003;65253;52.354;13.614;2024-02-21T22:08:00;7;6;
76420;PMS5003;65253;52.354;13.614;2024-02-21T22:12:00;9;7;
76420;PMS5003;65253;52.354;13.614;2024-02-21T22:16:00;4;4;
76420;PMS5003;65253;52.354;13.614;2024-02-21T22:20:00;7;5;
76420;PMS5003;65253;52.354;13.614;2024-02-21T22:24:00;6;4;
76420;PMS5003;65253;52.354;13.614;2024-02-21T22:28:00;6;5;
76420;PMS5003;65253;52.354;13.614;2024-02-21T22:32:00;8;5;
76420;PMS5003;65253;52.354;13.614;2024-02-21T22:36:00;6;4;
76420;PMS5003;65253;52.354;13.614;2024-02-21T22:40:00;3;3;
76420;PMS5003;65253;52.354;13.614;2024-02-21T22:44:01;9;3;
76420;PMS5003;65253;52.354;13.614;2024-02-21T22:48:00;4;3;
76420;PMS5003;65253;52.354;13.614;2024-02-21T22:52:00;3;3;
76420;PMS5003;65253;52.354;13.614;2024-02-21T22:56:00;5;3;
76420;PMS5003;65253;52.354;13.614;2024-02-21T23:00:00;7;3;
76420;PMS5003;65253;52.354;13.614;2024-02-21T23:04:00;6;4;
76420;PMS5003;65253;52.354;13.614;2024-02-21T23:08:00;4;3;
76420;PMS5003;65253;52.354;13.614;2024-02-21T23:12:01;3;3;
76420;PMS5003;65253;52.354;13.614;2024-02-21T23:16:00;7;5;
76420;PMS5003;65253;52.354;13.614;2024-02-21T23:20:00;4;3;
76420;PMS5003;65253;52.354;13.614;2024-02-21T23:24:00;4;2;
76420;PMS5003;65253;52.354;13.614;2024-02-21T23:28:00;2;2;
76420;PMS5003;65253;52.354;13.614;2024-02-21T23:32:00;6;3;
76420;PMS5003;65253;52.354;13.614;2024-02-21T23:36:02;5;4;
76420;PMS5003;65253;52.354;13.614;2024-02-21T23:40:00;3;3;
76420;PMS5003;65253;52.354;13.614;2024-02-21T23:44:01;6;3;
76420;PMS5003;65253;52.354;13.614;2024-02-21T23:48:00;4;2;
76420;PMS5003;65253;52.354;13.614;2024-02-21T23:52:00;3;2;
76420;PMS5003;65253;52.354;13.614;2024-02-21T23:56:00;1;1;
